Time;durP1;ratioP1;P1;durP2;ratioP2;P2;SDS_P1;SDS_P2;PMS_P1;PMS_P2;Temp;Humidity;BMP_temperature;BMP_pressure;BME280_temperature;BME280_humidity;BME280_pressure;Samples;Min_cycle;Max_cycle;Signal;HPM_P1;HPM_P2
2022/07/13 00:01:52;;;;;;;4.25;3.95;;;23.20;92.10;;;;;;4956618;28;92430;-70
2022/07/13 00:04:19;;;;;;;4.47;4.18;;;23.20;92.10;;;;;;4956014;28;92999;-70
2022/07/13 00:06:46;;;;;;;4.95;4.63;;;23.20;92.10;;;;;;4956315;28;93064;-70
2022/07/13 00:09:13;;;;;;;4.30;3.90;;;23.20;92.20;;;;;;4955080;28;94070;-70
2022/07/13 00:11:40;;;;;;;4.80;4.35;;;23.10;92.20;;;;;;4956461;28;92442;-70
2022/07/13 00:14:07;;;;;;;3.88;3.58;;;23.10;92.20;;;;;;4954718;28;93330;-70
2022/07/13 00:16:34;;;;;;;5.40;4.85;;;23.10;92.20;;;;;;4954845;28;95752;-70
2022/07/13 00:19:01;;;;;;;4.38;3.90;;;23.10;92.30;;;;;;4971161;28;95259;-70
2022/07/13 00:21:28;;;;;;;4.57;4.22;;;23.10;92.30;;;;;;4971538;28;92478;-70
2022/07/13 00:23:57;;;;;;;5.20;4.65;;;23.10;92.40;;;;;;4954868;28;92589;-70
2022/07/13 00:26:24;;;;;;;4.30;3.90;;;23.10;92.40;;;;;;4954432;28;93119;-70
2022/07/13 00:28:52;;;;;;;4.65;4.35;;;23.10;92.40;;;;;;4955102;28;93688;-70
2022/07/13 00:31:19;;;;;;;5.38;4.97;;;23.10;92.50;;;;;;4954688;28;92414;-70
2022/07/13 00:33:46;;;;;;;4.97;4.47;;;23.00;92.50;;;;;;4956801;28;91631;-70
2022/07/13 00:36:13;;;;;;;5.07;4.55;;;23.00;92.50;;;;;;4954461;28;96050;-70
2022/07/13 00:38:40;;;;;;;6.38;5.80;;;23.00;92.50;;;;;;4954827;28;95653;-70
2022/07/13 00:41:07;;;;;;;5.82;5.35;;;23.00;92.60;;;;;;4954787;28;94745;-70
2022/07/13 00:43:34;;;;;;;5.32;4.82;;;22.90;92.60;;;;;;4971265;28;92537;-70
2022/07/13 00:46:01;;;;;;;5.22;4.82;;;22.90;92.70;;;;;;4956060;28;93202;-70
2022/07/13 00:48:29;;;;;;;6.13;5.63;;;22.90;92.70;;;;;;4955778;28;93189;-70
2022/07/13 00:50:56;;;;;;;4.45;4.05;;;22.90;92.90;;;;;;4954626;28;92450;-70
2022/07/13 00:53:24;;;;;;;5.47;4.45;;;22.80;92.90;;;;;;4956028;28;92419;-70
2022/07/13 00:55:51;;;;;;;4.85;4.50;;;22.80;92.90;;;;;;4954400;28;94671;-70
2022/07/13 00:58:18;;;;;;;5.60;5.13;;;22.80;92.90;;;;;;4955870;28;92932;-70
2022/07/13 01:00:45;;;;;;;5.13;4.43;;;22.80;93.00;;;;;;4956077;28;92496;-70
2022/07/13 01:03:12;;;;;;;4.18;3.78;;;22.80;93.00;;;;;;4954597;28;93127;-70
2022/07/13 01:05:40;;;;;;;6.72;6.22;;;22.80;93.20;;;;;;4969216;28;97870;-70
2022/07/13 01:08:07;;;;;;;5.03;4.72;;;22.80;93.10;;;;;;4954139;28;97841;-70
2022/07/13 01:10:34;;;;;;;5.05;4.65;;;22.80;93.10;;;;;;4954481;28;92483;-70
2022/07/13 01:13:01;;;;;;;6.88;6.38;;;22.80;93.10;;;;;;4954354;28;92491;-70
2022/07/13 01:15:29;;;;;;;4.43;4.05;;;22.80;93.20;;;;;;4954010;28;95931;-70
2022/07/13 01:17:56;;;;;;;4.78;4.30;;;22.70;93.20;;;;;;4954196;28;95445;-70
2022/07/13 01:20:24;;;;;;;6.63;6.03;;;22.70;93.20;;;;;;4953959;28;92622;-70
2022/07/13 01:22:52;;;;;;;5.90;5.47;;;22.70;93.20;;;;;;4954748;28;91726;-70
2022/07/13 01:25:20;;;;;;;6.40;5.97;;;22.70;93.20;;;;;;4956738;28;94584;-70
2022/07/13 01:27:48;;;;;;;7.00;6.40;;;22.70;93.20;;;;;;4957702;28;94040;-70
2022/07/13 01:30:15;;;;;;;6.00;5.55;;;22.70;93.20;;;;;;4972621;28;94897;-70
2022/07/13 01:32:43;;;;;;;6.15;5.07;;;22.70;93.20;;;;;;4957604;28;92458;-70
2022/07/13 01:35:10;;;;;;;5.82;5.40;;;22.70;93.30;;;;;;4958503;28;93368;-70
2022/07/13 01:37:38;;;;;;;6.20;5.40;;;22.70;93.30;;;;;;4973838;28;93991;-70
2022/07/13 01:40:06;;;;;;;6.72;6.07;;;22.70;93.20;;;;;;4973909;28;92537;-70
2022/07/13 01:42:43;;;;;;;6.32;5.85;;;22.70;93.20;;;;;;4941302;28;93231;-70
2022/07/13 01:45:11;;;;;;;5.57;5.18;;;22.70;93.20;;;;;;4958874;28;93252;-70
2022/07/13 01:47:42;;;;;;;7.25;6.65;;;22.60;93.20;;;;;;4957285;28;95406;-70
2022/07/13 01:50:11;;;;;;;7.10;6.53;;;22.60;93.10;;;;;;4958996;28;93120;-70
2022/07/13 01:52:38;;;;;;;7.05;6.35;;;22.60;93.10;;;;;;4957080;28;93052;-70
2022/07/13 01:55:07;;;;;;;7.60;7.00;;;22.60;93.10;;;;;;4957249;28;95624;-70
2022/07/13 01:57:35;;;;;;;6.38;5.93;;;22.60;93.10;;;;;;4957183;28;95262;-70
2022/07/13 02:00:13;;;;;;;7.47;6.97;;;22.60;93.10;;;;;;4956940;28;92797;-70
2022/07/13 02:02:41;;;;;;;6.50;5.90;;;22.70;93.10;;;;;;4954844;28;92504;-70
2022/07/13 02:05:13;;;;;;;8.05;7.45;;;22.60;93.20;;;;;;4956863;28;95530;-69
2022/07/13 02:07:41;;;;;;;7.38;6.60;;;22.60;93.20;;;;;;4956602;28;95494;-69
2022/07/13 02:10:10;;;;;;;6.88;6.35;;;22.60;93.20;;;;;;4957193;28;92570;-69
2022/07/13 02:12:38;;;;;;;7.07;6.22;;;22.60;93.20;;;;;;4940762;28;91815;-69
2022/07/13 02:15:08;;;;;;;7.88;7.22;;;22.60;93.20;;;;;;4956894;28;95729;-69
2022/07/13 02:17:37;;;;;;;7.82;6.78;;;22.60;93.20;;;;;;4956641;28;94305;-69
2022/07/13 02:20:06;;;;;;;8.05;7.35;;;22.50;93.20;;;;;;4957253;28;94845;-69
2022/07/13 02:22:44;;;;;;;9.50;8.80;;;22.50;93.20;;;;;;4956479;28;100829;-69
2022/07/13 02:25:15;;;;;;;7.82;7.13;;;22.60;93.00;;;;;;4956313;28;93344;-69
2022/07/13 02:27:43;;;;;;;9.40;8.57;;;22.50;93.00;;;;;;4956487;28;95458;-69
2022/07/13 02:30:12;;;;;;;10.30;9.50;;;22.40;92.80;;;;;;4956852;28;92478;-69
2022/07/13 02:32:40;;;;;;;9.82;8.30;;;22.50;92.70;;;;;;4957771;28;92586;-69
2022/07/13 02:35:08;;;;;;;9.57;8.75;;;22.50;92.70;;;;;;4956968;28;93174;-69
2022/07/13 02:37:36;;;;;;;9.52;8.82;;;22.40;92.60;;;;;;4956128;28;95609;-69
2022/07/13 02:40:04;;;;;;;10.85;9.77;;;22.50;92.60;;;;;;4956680;28;92509;-69
2022/07/13 02:42:32;;;;;;;9.40;8.68;;;22.50;92.50;;;;;;4972700;28;92498;-69
2022/07/13 02:44:59;;;;;;;10.88;9.80;;;22.50;92.50;;;;;;4955045;28;98156;-69
2022/07/13 02:47:26;;;;;;;10.85;9.95;;;22.50;92.50;;;;;;4955916;28;98075;-69
2022/07/13 02:49:53;;;;;;;11.68;10.23;;;22.50;92.50;;;;;;4956438;28;92543;-69
2022/07/13 02:52:20;;;;;;;10.30;9.40;;;22.50;92.60;;;;;;4955415;28;92595;-69
2022/07/13 02:54:47;;;;;;;12.13;11.13;;;22.50;92.70;;;;;;4956047;28;95590;-69
2022/07/13 02:57:15;;;;;;;10.45;9.65;;;22.50;92.70;;;;;;4955536;28;93971;-69
2022/07/13 02:59:44;;;;;;;12.07;11.07;;;22.50;92.80;;;;;;4955915;28;92693;-69
2022/07/13 03:02:12;;;;;;;10.70;9.88;;;22.40;92.80;;;;;;4956076;28;91820;-69
2022/07/13 03:04:40;;;;;;;11.27;9.82;;;22.40;92.90;;;;;;4955336;28;94296;-69
2022/07/13 03:07:07;;;;;;;12.27;11.18;;;22.40;92.90;;;;;;4956044;28;93990;-69
2022/07/13 03:09:34;;;;;;;12.07;10.88;;;22.40;92.90;;;;;;4954359;28;95336;-69
2022/07/13 03:12:01;;;;;;;11.27;10.45;;;22.40;92.90;;;;;;4955390;28;92502;-69
2022/07/13 03:14:30;;;;;;;10.95;10.05;;;22.40;92.90;;;;;;4955154;28;95520;-69
2022/07/13 03:16:57;;;;;;;11.40;10.50;;;22.40;92.90;;;;;;4971573;28;92832;-69
2022/07/13 03:19:24;;;;;;;10.65;9.63;;;22.40;92.90;;;;;;4955249;28;92556;-69
2022/07/13 03:21:51;;;;;;;11.10;10.02;;;22.40;92.90;;;;;;4955933;28;92479;-70
2022/07/13 03:24:18;;;;;;;11.20;10.15;;;22.30;92.90;;;;;;4939037;28;95363;-69
2022/07/13 03:26:45;;;;;;;10.57;9.65;;;22.30;92.90;;;;;;4956813;28;92958;-69
2022/07/13 03:29:12;;;;;;;10.57;9.77;;;22.40;92.90;;;;;;4955847;28;92484;-69
2022/07/13 03:31:39;;;;;;;10.90;9.90;;;22.30;92.80;;;;;;4971311;28;92622;-69
2022/07/13 03:34:06;;;;;;;10.55;9.07;;;22.30;92.80;;;;;;4954270;28;98601;-69
2022/07/13 03:36:34;;;;;;;9.93;8.98;;;22.30;92.80;;;;;;4956995;28;95363;-69
2022/07/13 03:39:03;;;;;;;10.45;9.45;;;22.30;92.70;;;;;;4955826;28;92582;-69
2022/07/13 03:41:31;;;;;;;11.50;10.60;;;22.30;92.80;;;;;;4955546;28;92575;-69
2022/07/13 03:43:59;;;;;;;9.68;8.88;;;22.30;92.80;;;;;;4954877;28;95939;-69
2022/07/13 03:46:26;;;;;;;10.45;9.65;;;22.30;92.80;;;;;;4938751;28;95376;-69
2022/07/13 03:48:53;;;;;;;7.97;7.20;;;22.30;92.80;;;;;;4939410;28;92534;-69
2022/07/13 03:51:20;;;;;;;10.13;9.43;;;22.30;92.80;;;;;;4955921;28;91789;-69
2022/07/13 03:53:48;;;;;;;9.80;8.88;;;22.30;92.70;;;;;;4955104;28;95681;-69
2022/07/13 03:56:14;;;;;;;9.93;7.97;;;22.30;92.70;;;;;;4955305;28;95609;-69
2022/07/13 03:58:41;;;;;;;10.60;9.77;;;22.30;92.70;;;;;;4954384;28;95308;-69
2022/07/13 04:01:09;;;;;;;10.20;9.45;;;22.30;92.70;;;;;;4955207;28;92546;-69
2022/07/13 04:03:37;;;;;;;9.82;9.13;;;22.30;92.70;;;;;;4938773;28;95921;-70
2022/07/13 04:06:04;;;;;;;11.38;10.23;;;22.30;92.70;;;;;;4955012;28;94216;-70
2022/07/13 04:08:31;;;;;;;9.63;8.77;;;22.30;92.70;;;;;;4954871;28;92406;-69
2022/07/13 04:10:58;;;;;;;10.15;9.15;;;22.30;92.60;;;;;;4955236;28;92506;-70
2022/07/13 04:13:25;;;;;;;9.90;9.00;;;22.30;92.60;;;;;;4954902;28;94248;-69
2022/07/13 04:15:52;;;;;;;9.52;8.63;;;22.40;92.60;;;;;;4955181;28;95534;-69
2022/07/13 04:18:20;;;;;;;9.63;8.75;;;22.40;92.60;;;;;;4939027;28;92564;-69
2022/07/13 04:20:47;;;;;;;10.93;8.75;;;22.40;92.50;;;;;;4954921;28;92553;-70
2022/07/13 04:23:14;;;;;;;9.48;8.55;;;22.50;92.40;;;;;;4953663;28;98671;-69
2022/07/13 04:25:41;;;;;;;10.02;9.23;;;22.50;92.30;;;;;;4938438;28;96615;-69
2022/07/13 04:28:08;;;;;;;10.30;9.30;;;22.50;92.20;;;;;;4954762;28;92480;-69
2022/07/13 04:30:36;;;;;;;11.95;10.90;;;22.50;92.20;;;;;;4938862;28;92536;-69
2022/07/13 04:33:04;;;;;;;11.35;10.45;;;22.60;92.10;;;;;;4954221;28;95677;-69
2022/07/13 04:35:31;;;;;;;10.52;9.63;;;22.60;92.00;;;;;;4954218;28;95705;-69
2022/07/13 04:37:58;;;;;;;10.48;9.57;;;22.60;92.00;;;;;;4954729;28;92389;-69
2022/07/13 04:40:26;;;;;;;13.23;12.02;;;22.60;92.00;;;;;;4956496;28;91666;-70
2022/07/13 04:42:53;;;;;;;11.50;10.50;;;22.70;92.00;;;;;;4937723;28;96077;-69
2022/07/13 04:45:21;;;;;;;12.13;11.02;;;22.70;92.00;;;;;;4938011;28;95286;-69
2022/07/13 04:47:52;;;;;;;12.25;11.25;;;22.70;92.00;;;;;;4937437;28;94790;-69
2022/07/13 04:50:19;;;;;;;11.88;10.88;;;22.70;92.00;;;;;;4954008;28;92510;-69
2022/07/13 04:52:47;;;;;;;10.65;9.70;;;22.70;92.00;;;;;;4953550;28;95802;-69
2022/07/13 04:55:16;;;;;;;11.80;10.65;;;22.70;92.00;;;;;;4954490;28;94956;-69
2022/07/13 04:57:43;;;;;;;11.32;10.38;;;22.80;92.00;;;;;;4954027;28;92438;-69
2022/07/13 05:00:12;;;;;;;11.80;10.63;;;22.80;92.00;;;;;;4973080;28;92528;-69
2022/07/13 05:02:39;;;;;;;11.18;10.20;;;22.80;92.00;;;;;;4957252;28;93178;-69
2022/07/13 05:05:06;;;;;;;11.38;10.27;;;22.90;92.00;;;;;;4958700;28;92920;-69
2022/07/13 05:07:33;;;;;;;13.43;12.23;;;22.90;92.00;;;;;;4941048;28;92584;-69
2022/07/13 05:10:05;;;;;;;11.98;11.05;;;23.00;92.00;;;;;;4957453;28;92452;-69
2022/07/13 05:12:37;;;;;;;10.55;9.55;;;23.00;92.00;;;;;;4955851;28;97737;-69
2022/07/13 05:15:06;;;;;;;11.75;10.05;;;23.10;91.90;;;;;;4941321;28;98015;-69
2022/07/13 05:17:33;;;;;;;11.05;9.23;;;23.10;92.00;;;;;;4957319;28;92582;-69
2022/07/13 05:20:03;;;;;;;10.63;9.77;;;23.10;92.00;;;;;;4957692;28;93047;-69
2022/07/13 05:22:33;;;;;;;11.68;10.13;;;23.10;91.90;;;;;;4957687;28;94537;-69
2022/07/13 05:25:01;;;;;;;8.90;8.13;;;23.20;91.90;;;;;;4956812;28;94924;-69
2022/07/13 05:27:28;;;;;;;10.65;8.77;;;23.30;91.90;;;;;;4957825;28;92619;-69
2022/07/13 05:29:56;;;;;;;9.45;8.75;;;23.30;91.90;;;;;;4957872;28;91698;-69
2022/07/13 05:32:24;;;;;;;8.00;7.30;;;23.40;91.80;;;;;;4958635;28;93103;-69
2022/07/13 05:34:52;;;;;;;9.10;8.30;;;23.40;91.70;;;;;;4957320;28;95446;-70
2022/07/13 05:37:20;;;;;;;8.77;7.85;;;23.50;91.50;;;;;;4956485;28;94841;-69
2022/07/13 05:39:47;;;;;;;8.15;7.47;;;23.50;91.40;;;;;;4957344;28;93049;-69
2022/07/13 05:42:16;;;;;;;9.23;8.32;;;23.60;91.20;;;;;;4957175;28;95879;-69
2022/07/13 05:44:43;;;;;;;8.48;7.88;;;23.60;91.00;;;;;;4957317;28;95476;-69
2022/07/13 05:47:10;;;;;;;7.88;7.18;;;23.70;90.80;;;;;;4957250;28;92915;-69
2022/07/13 05:49:37;;;;;;;8.07;7.43;;;23.70;90.60;;;;;;4957354;28;92507;-69
2022/07/13 05:52:06;;;;;;;8.13;7.45;;;23.80;90.50;;;;;;4956735;28;95764;-69
2022/07/13 05:54:35;;;;;;;8.63;7.93;;;23.90;90.40;;;;;;4957446;28;94856;-70
2022/07/13 05:57:11;;;;;;;7.25;6.75;;;24.00;90.30;;;;;;4958775;28;92355;-69
2022/07/13 05:59:38;;;;;;;7.07;6.47;;;24.10;90.10;;;;;;4958541;28;92429;-69
2022/07/13 06:02:05;;;;;;;7.15;6.55;;;24.20;89.90;;;;;;4955563;28;98041;-69
2022/07/13 06:04:32;;;;;;;8.10;7.32;;;24.30;89.50;;;;;;4958126;28;95167;-69
2022/07/13 06:06:59;;;;;;;6.80;6.30;;;24.40;88.90;;;;;;4958289;28;92362;-70
2022/07/13 06:09:26;;;;;;;6.90;6.30;;;24.50;88.20;;;;;;4956385;28;103934;-70
2022/07/13 06:11:53;;;;;;;6.18;5.65;;;24.60;87.40;;;;;;4956703;28;94272;-69
2022/07/13 06:14:20;;;;;;;7.47;6.97;;;24.70;86.80;;;;;;4972762;28;92864;-69
2022/07/13 06:16:46;;;;;;;7.47;6.90;;;24.90;86.30;;;;;;4958440;28;92551;-69
2022/07/13 06:19:13;;;;;;;6.45;5.85;;;25.00;86.10;;;;;;4957201;28;91780;-70
2022/07/13 06:21:40;;;;;;;5.95;5.45;;;25.10;85.90;;;;;;4956637;28;95801;-70
2022/07/13 06:24:07;;;;;;;6.88;6.28;;;25.30;85.50;;;;;;4956443;28;94216;-70
2022/07/13 06:26:34;;;;;;;7.35;5.70;;;25.40;85.10;;;;;;4939247;28;94955;-70
2022/07/13 06:29:01;;;;;;;5.80;5.30;;;25.50;84.90;;;;;;4972618;28;92508;-70
2022/07/13 06:31:28;;;;;;;6.35;5.57;;;25.80;84.60;;;;;;4958067;28;93262;-70
2022/07/13 06:33:56;;;;;;;6.88;6.28;;;26.00;83.80;;;;;;4957575;28;92387;-70
2022/07/13 06:36:23;;;;;;;5.63;5.13;;;26.20;82.90;;;;;;4958153;28;92354;-70
2022/07/13 06:38:50;;;;;;;6.25;5.75;;;26.40;82.40;;;;;;4957572;28;100889;-70
2022/07/13 06:41:18;;;;;;;6.07;5.47;;;26.40;81.30;;;;;;4956435;28;95791;-70
2022/07/13 06:43:45;;;;;;;6.70;6.07;;;26.60;80.40;;;;;;4957985;28;92772;-70
2022/07/13 06:46:12;;;;;;;5.50;5.20;;;26.70;79.60;;;;;;4957751;28;92357;-70
2022/07/13 06:48:39;;;;;;;6.13;5.55;;;26.90;79.30;;;;;;4958008;28;92887;-70
2022/07/13 06:51:06;;;;;;;6.75;6.20;;;27.10;78.30;;;;;;4938536;28;98520;-70
2022/07/13 06:53:33;;;;;;;5.95;5.50;;;27.20;77.90;;;;;;4956059;28;96514;-70
2022/07/13 06:56:00;;;;;;;5.40;5.00;;;27.40;78.10;;;;;;4956208;28;92440;-70
2022/07/13 06:58:27;;;;;;;6.53;5.28;;;27.60;78.00;;;;;;4957875;28;92451;-70
2022/07/13 07:00:54;;;;;;;6.40;5.85;;;27.80;77.70;;;;;;4957283;28;93273;-70
2022/07/13 07:03:21;;;;;;;8.00;5.55;;;28.00;77.50;;;;;;4956301;28;92685;-70
2022/07/13 07:05:50;;;;;;;5.93;5.35;;;28.10;76.90;;;;;;4957539;28;92390;-70
2022/07/13 07:08:17;;;;;;;6.78;5.30;;;28.30;76.70;;;;;;4956571;28;91805;-70
2022/07/13 07:10:44;;;;;;;5.57;5.03;;;28.40;76.10;;;;;;4955890;28;92436;-70
2022/07/13 07:13:11;;;;;;;5.18;4.68;;;28.60;75.40;;;;;;4955800;28;100436;-70
2022/07/13 07:15:39;;;;;;;6.47;6.07;;;28.70;75.00;;;;;;4955141;28;94957;-70
2022/07/13 07:18:06;;;;;;;5.53;5.13;;;28.90;74.30;;;;;;4955706;28;92437;-70
2022/07/13 07:20:36;;;;;;;6.43;5.93;;;29.00;73.90;;;;;;4957549;28;93161;-70
2022/07/13 07:23:03;;;;;;;7.43;5.93;;;29.10;72.80;;;;;;4954792;28;94049;-70
2022/07/13 07:25:31;;;;;;;7.65;7.05;;;29.10;72.80;;;;;;4957593;28;92863;-70
2022/07/13 07:27:58;;;;;;;7.90;7.30;;;29.10;72.70;;;;;;4971948;28;92684;-70
2022/07/13 07:30:25;;;;;;;8.77;7.95;;;29.10;71.90;;;;;;4955795;28;93201;-70
2022/07/13 07:32:52;;;;;;;7.45;6.70;;;29.00;71.70;;;;;;4957358;28;93080;-70
2022/07/13 07:35:19;;;;;;;7.85;7.15;;;28.90;72.00;;;;;;4957145;28;92361;-70
2022/07/13 07:37:46;;;;;;;7.20;6.20;;;28.90;72.10;;;;;;4956942;28;92354;-70
2022/07/13 07:40:13;;;;;;;7.40;6.70;;;29.00;72.60;;;;;;4955562;28;95695;-70
2022/07/13 07:42:40;;;;;;;7.55;6.60;;;29.10;73.00;;;;;;4971682;28;95921;-70
2022/07/13 07:45:08;;;;;;;8.98;8.27;;;29.30;73.10;;;;;;4956229;28;105346;-70
2022/07/13 07:47:36;;;;;;;8.15;7.38;;;29.50;72.20;;;;;;4955437;28;92392;-70
2022/07/13 07:50:04;;;;;;;9.70;8.63;;;29.70;71.40;;;;;;4956833;28;93535;-70
2022/07/13 07:52:31;;;;;;;7.60;6.90;;;29.90;70.60;;;;;;4955240;28;95733;-70
2022/07/13 07:55:19;;;;;;;6.60;6.00;;;30.10;70.30;;;;;;4941471;28;92546;-70
2022/07/13 07:57:49;;;;;;;7.68;6.97;;;30.20;70.20;;;;;;4955957;28;91810;-70
2022/07/13 08:00:17;;;;;;;7.78;7.13;;;30.30;69.60;;;;;;4956578;28;93276;-70
2022/07/13 08:02:45;;;;;;;7.22;6.63;;;30.30;69.50;;;;;;4955080;28;95632;-70
2022/07/13 08:05:12;;;;;;;6.25;5.75;;;30.30;69.90;;;;;;4954755;28;94856;-69
2022/07/13 08:07:42;;;;;;;6.97;6.45;;;30.30;69.70;;;;;;4955420;28;92591;-69
2022/07/13 08:10:16;;;;;;;5.97;5.25;;;30.30;70.10;;;;;;4956404;28;93170;-69
2022/07/13 08:13:03;;;;;;;6.20;5.70;;;30.40;70.00;;;;;;4954103;28;95631;-69
2022/07/13 08:15:31;;;;;;;7.90;7.32;;;30.60;70.00;;;;;;4956575;28;92368;-69
2022/07/13 08:18:24;;;;;;;7.88;5.60;;;30.70;69.10;;;;;;4956908;28;93105;-69
2022/07/13 08:21:05;;;;;;;7.78;7.10;;;31.10;67.70;;;;;;4951662;28;93250;-69
2022/07/13 08:26:25;;;;;;;6.93;6.22;;;31.20;67.70;;;;;;4954955;28;92528;-69
2022/07/13 08:28:53;;;;;;;7.38;6.88;;;31.40;67.40;;;;;;4956475;28;92425;-69
2022/07/13 08:31:21;;;;;;;6.55;5.90;;;31.60;68.00;;;;;;4954596;28;98902;-69
2022/07/13 08:39:36;;;;;;;9.40;6.43;;;34.00;62.80;;;;;;4954978;28;92523;-70
2022/07/13 08:42:18;;;;;;;6.97;6.38;;;34.40;61.70;;;;;;4971020;28;95350;-70
2022/07/13 08:44:48;;;;;;;8.52;7.28;;;35.00;61.10;;;;;;4955929;28;93045;-70
2022/07/13 08:47:17;;;;;;;6.25;5.75;;;35.70;59.30;;;;;;4954639;28;93054;-70
2022/07/13 08:49:44;;;;;;;6.90;6.40;;;36.50;58.00;;;;;;4956378;28;91790;-70
2022/07/13 08:52:12;;;;;;;6.93;6.43;;;37.10;56.10;;;;;;4955581;28;93252;-70
2022/07/13 08:54:39;;;;;;;7.72;7.07;;;37.70;54.40;;;;;;4955780;28;92826;-70
2022/07/13 08:57:06;;;;;;;8.02;6.70;;;38.20;53.00;;;;;;4954475;28;97332;-70
2022/07/13 08:59:33;;;;;;;8.23;6.10;;;38.60;51.60;;;;;;4971021;28;92565;-70
2022/07/13 09:02:03;;;;;;;7.35;6.80;;;39.00;50.60;;;;;;4955948;28;92922;-70
2022/07/13 09:04:37;;;;;;;6.78;6.20;;;39.40;49.70;;;;;;4969874;28;92969;-70
2022/07/13 09:07:18;;;;;;;6.30;5.70;;;39.60;48.50;;;;;;4954160;28;92433;-70
2022/07/13 09:09:58;;;;;;;6.68;6.25;;;39.60;48.30;;;;;;4956116;28;92335;-70
2022/07/13 09:12:37;;;;;;;6.57;6.10;;;39.80;47.80;;;;;;4954482;28;93222;-70
2022/07/13 09:15:26;;;;;;;6.47;5.93;;;39.40;47.70;;;;;;4969727;28;92956;-70
2022/07/13 09:18:07;;;;;;;8.40;7.70;;;39.00;48.10;;;;;;4954330;28;92670;-70
2022/07/13 09:20:37;;;;;;;8.85;8.13;;;38.50;48.90;;;;;;4955716;28;92360;-70
2022/07/13 09:23:05;;;;;;;7.80;7.20;;;37.80;50.00;;;;;;4954284;28;95775;-70
2022/07/13 09:25:38;;;;;;;5.90;5.40;;;37.20;50.90;;;;;;4953952;28;98060;-70
2022/07/13 09:28:07;;;;;;;5.78;5.38;;;36.70;52.40;;;;;;4954166;28;92710;-70
2022/07/13 09:30:45;;;;;;;8.75;7.95;;;36.00;53.10;;;;;;4954336;28;92559;-70
2022/07/13 09:33:12;;;;;;;7.38;6.75;;;35.30;54.20;;;;;;4938004;28;94272;-70
2022/07/13 09:35:43;;;;;;;6.72;6.13;;;34.70;55.40;;;;;;4955297;28;92481;-70
2022/07/13 09:38:30;;;;;;;6.82;6.32;;;34.20;56.30;;;;;;4955771;28;92372;-69
2022/07/13 09:41:14;;;;;;;8.90;7.32;;;33.80;57.70;;;;;;4956174;28;92294;-70
2022/07/13 09:47:05;;;;;;;7.85;5.10;;;33.00;60.30;;;;;;4970741;28;92558;-69
2022/07/13 09:49:41;;;;;;;4.70;4.30;;;32.70;61.10;;;;;;4958151;28;95371;-69
2022/07/13 09:52:09;;;;;;;6.18;5.68;;;32.40;60.80;;;;;;4957479;28;92430;-69
2022/07/13 09:54:39;;;;;;;4.97;4.57;;;32.20;61.00;;;;;;4956857;28;94654;-69
2022/07/13 09:57:09;;;;;;;6.97;6.35;;;32.10;62.00;;;;;;4973228;28;93741;-69
2022/07/13 09:59:38;;;;;;;6.65;5.82;;;32.00;61.10;;;;;;4958540;28;92423;-69
2022/07/13 10:02:07;;;;;;;6.90;6.15;;;31.70;61.70;;;;;;4957287;28;92528;-69
2022/07/13 10:04:35;;;;;;;4.70;4.35;;;31.40;61.50;;;;;;4956656;28;92475;-69
2022/07/13 10:07:15;;;;;;;6.88;4.60;;;31.20;62.20;;;;;;4957791;28;92867;-69
2022/07/13 10:09:42;;;;;;;7.32;4.80;;;31.20;62.10;;;;;;4958118;28;92431;-69
2022/07/13 10:12:10;;;;;;;5.90;5.18;;;31.20;62.00;;;;;;4956894;28;92510;-69
2022/07/13 10:14:38;;;;;;;6.22;5.07;;;31.20;62.40;;;;;;4955120;28;98284;-69
2022/07/13 10:17:11;;;;;;;5.00;4.60;;;31.00;62.00;;;;;;4973027;28;95537;-69
2022/07/13 10:19:48;;;;;;;4.75;4.25;;;30.80;62.20;;;;;;4958305;28;92449;-69
2022/07/13 10:22:19;;;;;;;4.20;3.90;;;30.90;61.70;;;;;;4956943;28;93030;-69
2022/07/13 10:24:57;;;;;;;6.35;4.22;;;30.70;59.90;;;;;;4958357;28;93143;-69
2022/07/13 10:27:32;;;;;;;4.97;3.30;;;30.60;59.40;;;;;;4958218;28;93014;-69
2022/07/13 10:30:03;;;;;;;4.65;3.25;;;30.50;59.70;;;;;;4958556;28;92485;-69
2022/07/13 10:32:40;;;;;;;4.43;3.67;;;30.50;60.30;;;;;;4958486;28;91713;-69
2022/07/13 10:35:11;;;;;;;4.78;3.38;;;30.50;59.40;;;;;;4958092;28;93311;-69
2022/07/13 10:37:56;;;;;;;2.90;2.70;;;30.40;59.30;;;;;;4957844;28;93073;-69
2022/07/13 10:40:32;;;;;;;3.78;3.25;;;30.50;59.70;;;;;;4956938;28;94906;-69
2022/07/13 10:43:08;;;;;;;3.75;3.35;;;30.40;59.70;;;;;;4958151;28;92340;-69
2022/07/13 10:45:44;;;;;;;7.30;3.30;;;30.30;60.30;;;;;;4939969;28;95770;-69
2022/07/13 10:48:24;;;;;;;3.58;2.80;;;30.40;60.90;;;;;;4940175;28;93995;-69
2022/07/13 10:50:59;;;;;;;4.40;3.78;;;30.60;59.80;;;;;;4940423;28;92502;-69
2022/07/13 10:53:38;;;;;;;4.28;3.63;;;30.50;59.50;;;;;;4956459;28;92482;-69
2022/07/13 10:56:19;;;;;;;4.75;2.70;;;30.50;59.20;;;;;;4956887;28;93237;-69
2022/07/13 10:58:49;;;;;;;4.40;3.67;;;30.60;58.80;;;;;;4956724;28;93101;-69
2022/07/13 11:01:48;;;;;;;3.63;2.70;;;30.50;58.30;;;;;;4957059;28;103538;-69
2022/07/13 11:04:18;;;;;;;3.80;3.50;;;30.60;59.00;;;;;;4944896;28;92453;-69
2022/07/13 11:07:06;;;;;;;4.38;3.92;;;30.50;59.10;;;;;;4954612;28;98162;-69
2022/07/13 11:09:33;;;;;;;3.92;3.33;;;30.70;58.90;;;;;;4955548;28;95644;-69
2022/07/13 11:12:00;;;;;;;3.90;3.10;;;30.60;59.20;;;;;;4957550;28;92939;-69
2022/07/13 11:14:36;;;;;;;3.72;3.30;;;30.80;58.60;;;;;;4957034;28;92471;-69
2022/07/13 11:17:33;;;;;;;6.03;3.75;;;30.90;59.20;;;;;;4955729;28;94738;-69
2022/07/13 11:20:09;;;;;;;5.32;4.05;;;30.80;58.00;;;;;;4951464;28;94367;-69
2022/07/13 11:25:47;;;;;;;3.20;2.90;;;30.60;57.60;;;;;;4957500;28;91718;-69
2022/07/13 11:28:31;;;;;;;3.28;2.88;;;30.50;57.50;;;;;;4957219;28;93329;-69
2022/07/13 11:31:03;;;;;;;3.72;3.53;;;30.60;57.50;;;;;;4955765;28;93154;-69
2022/07/13 11:33:30;;;;;;;3.10;2.33;;;30.50;58.20;;;;;;4956138;28;94822;-69
2022/07/13 11:35:59;;;;;;;4.30;2.90;;;30.50;58.30;;;;;;4971969;28;92536;-69
2022/07/13 11:38:35;;;;;;;3.55;3.05;;;30.60;58.30;;;;;;4971527;28;93097;-69
2022/07/13 11:41:03;;;;;;;3.78;3.47;;;30.80;58.70;;;;;;4955601;28;95412;-69
2022/07/13 11:43:30;;;;;;;4.25;3.95;;;30.70;58.20;;;;;;4956671;28;92521;-70
2022/07/13 11:45:58;;;;;;;4.13;3.80;;;30.70;57.60;;;;;;4955445;28;98243;-69
2022/07/13 11:48:32;;;;;;;3.47;3.17;;;30.70;58.00;;;;;;4956867;28;93251;-69
2022/07/13 11:50:59;;;;;;;4.20;3.80;;;30.80;58.70;;;;;;4972210;28;93065;-69
2022/07/13 11:53:30;;;;;;;3.53;3.22;;;30.70;59.00;;;;;;4955537;28;92574;-69
2022/07/13 11:56:03;;;;;;;10.20;3.42;;;30.90;58.80;;;;;;4956479;28;92395;-69
2022/07/13 11:58:33;;;;;;;3.78;3.42;;;31.00;57.60;;;;;;4955445;28;95679;-69
2022/07/13 12:01:12;;;;;;;4.00;2.50;;;31.00;57.90;;;;;;4956537;28;96373;-69
2022/07/13 12:03:40;;;;;;;3.47;3.22;;;31.20;56.60;;;;;;4955396;28;92575;-69
2022/07/13 12:06:11;;;;;;;3.80;3.50;;;31.40;56.60;;;;;;4956636;28;92709;-69
2022/07/13 12:08:40;;;;;;;5.10;3.63;;;31.50;57.00;;;;;;4956018;28;93291;-69
2022/07/13 12:11:09;;;;;;;4.00;3.13;;;31.50;57.10;;;;;;4956327;28;92964;-69
2022/07/13 12:13:39;;;;;;;4.63;3.30;;;31.40;57.20;;;;;;4956347;28;92538;-69
2022/07/13 12:16:09;;;;;;;3.83;3.63;;;31.50;57.60;;;;;;4955481;28;91853;-69
2022/07/13 12:18:56;;;;;;;4.40;4.10;;;31.50;56.50;;;;;;4956360;28;93129;-69
2022/07/13 12:21:23;;;;;;;6.30;3.28;;;31.60;55.80;;;;;;4956600;28;92986;-69
2022/07/13 12:23:51;;;;;;;2.70;2.55;;;31.40;56.00;;;;;;4954939;28;96889;-69
2022/07/13 12:26:18;;;;;;;2.88;2.60;;;31.30;55.20;;;;;;4956487;28;92657;-69
2022/07/13 12:28:45;;;;;;;3.58;3.25;;;31.10;56.40;;;;;;4956291;28;93229;-69
2022/07/13 12:31:12;;;;;;;5.00;3.08;;;31.00;55.70;;;;;;4971393;28;93008;-69
2022/07/13 12:33:44;;;;;;;2.70;2.40;;;30.80;56.30;;;;;;4956143;28;92470;-69
2022/07/13 12:36:13;;;;;;;8.35;3.00;;;30.70;55.90;;;;;;4955576;28;92901;-69
2022/07/13 12:38:53;;;;;;;4.57;3.72;;;30.50;57.10;;;;;;4954500;28;94272;-69
2022/07/13 12:41:34;;;;;;;6.00;3.85;;;30.40;58.70;;;;;;4955162;28;95643;-69
2022/07/13 12:44:04;;;;;;;5.25;3.55;;;30.30;60.00;;;;;;4956141;28;92416;-69
2022/07/13 12:46:54;;;;;;;3.78;3.40;;;30.30;60.30;;;;;;4955250;28;92720;-69
2022/07/13 12:49:38;;;;;;;4.57;4.20;;;30.30;60.70;;;;;;4954896;28;95737;-69
2022/07/13 12:52:10;;;;;;;3.80;3.50;;;30.20;61.10;;;;;;4955858;28;94238;-69
2022/07/13 12:54:51;;;;;;;4.57;3.83;;;30.10;61.00;;;;;;4956195;28;93056;-69
2022/07/13 12:57:22;;;;;;;5.05;4.55;;;30.00;62.00;;;;;;4956143;28;92472;-69
2022/07/13 13:00:09;;;;;;;4.47;4.13;;;29.90;63.00;;;;;;4955730;28;92987;-69
2022/07/13 13:02:45;;;;;;;4.75;4.15;;;29.90;62.50;;;;;;4955587;28;92844;-69
2022/07/13 13:05:12;;;;;;;3.00;2.70;;;29.80;63.50;;;;;;4954385;28;92459;-69
2022/07/13 13:07:39;;;;;;;4.18;3.40;;;29.80;64.30;;;;;;4955134;28;91686;-69
2022/07/13 13:10:08;;;;;;;3.55;2.80;;;29.90;63.70;;;;;;4954496;28;94158;-69
2022/07/13 13:12:35;;;;;;;4.43;3.00;;;29.80;64.40;;;;;;4954554;28;92968;-69